Aviation Digital Data Service (ADDS)

Output produced by METARs form (0953 UTC 07 December 2022)
found at http://www.aviationweather.gov/metar/data/
 
KCBM 070904Z 20007KT 9SM FEW055 20/19 A3013 RMK AO2A DZE0855RAB0855E04 SLP204 TSNO $
KCBM 070855Z 20006KT 9SM -DZ FEW055 20/19 A3013 RMK AO2A RAB41 SLP204 P0000 60000 T02030188 52011 TSNO $
KCBM 070843Z 20006KT 9SM -RA BKN060 20/19 A3013 RMK AO2A RAB41 SLP204 TSNO $
KCBM 070755Z 21008KT 10SM BKN060 21/19 A3012 RMK AO2A SLP200 T02080185 TSNO $
KCBM 070655Z 19008KT 10SM FEW044 BKN060 21/18 A3010 RMK AO2A SLP194 T02100184 TSNO $
KCBM 070607Z AUTO 19007KT 4SM HZ BKN060 21/18 A3009 RMK AO2 SLP190 TSNO $
KCBM 070555Z 18007KT 10SM FEW043 OVC060 21/18 A3009 RMK AO2A SLP190 T02080182 10208 20179 402470179 52006 TSNO $
KCBM 070455Z 19009KT 10SM BKN065 21/18 A3009 RMK AO2A SLP190 T02070181 TSNO $
KCBM 070355Z 17005KT 10SM BKN060 19/18 A3008 RMK AO2A SLP187 T01920177 TSNO $
KCBM 070255Z 17004KT 10SM BKN065 19/17 A3008 RMK AO2A SLP187 T01850172 52017 TSNO $
KCBM 070155Z 18005KT 10SM BKN065 18/17 A3006 RMK AO2A SLP181 T01830170 TSNO $
KCBM 070055Z 00000KT 10SM BKN060 19/17 A3004 RMK AO2A SLP174 T01850168 TSNO $
KCBM 070028Z 16005KT 4SM BR BKN060 18/17 A3003 RMK AO2A SLP170 TSNO $
KCBM 062355Z 15004KT 10SM BKN060 19/17 A3003 RMK AO2A SLP170 T01940170 10247 20194 53007 TSNO $
KCBM 062255Z 17004KT 10SM FEW025 SCT060 BKN140 21/18 A3006 RMK AO2A SLP186 ALSTG/SLP ESTMD T02140176 TSNO $
KCBM 062155Z COR 18006KT 10SM SCT025 BKN060 24/18 A3004 RMK AO2A SLP175 ALSTG/SLP ESTMD T02380175 $ COR 2200
KCBM 062055Z 21006KT 10SM SCT035 BKN060 24/18 A3004 RMK AO2A SLP175 ALSTG/SLP ESTMD T02430180 $
KCBM 061958Z COR 20008KT 10SM SCT025 BKN045 24/18 A3003 RMK AO2 SLP172 ALSTG/SLP ESTMD $ COR 2011
KCBM 061955Z 20007KT 10SM BKN045 24/18 A3003 RMK AO2A SLP172 ALSTG/SLP ESTMD T02400179 $
KCBM 061855Z 21010G17KT 10SM SCT025 BKN050 25/18 A3003 RMK AO2A SLP172 ALSTG/SLP ESTMD T02450179 $
KCBM 061755Z 21012G19KT 10SM SCT025 BKN080 24/19 A3005 RMK AO2A SLP185 ALSTG/SLP ESTMD T02420186 10242 20191 TSNO $
KCBM 061655Z 19007KT 10SM BKN025 OVC070 23/20 A3008 RMK AO2A SLP192 ALSTG/SLP ESTMD T02330196 TSNO $
KCBM 061601Z 19008KT 10SM BKN025 OVC070 21/19 A3009 RMK AO2A SLP196 ALSTG/SLP ESTMD TSNO $
KCBM 061555Z 19007KT 10SM SCT008 BKN018 21/19 A3009 RMK AO2A SLP196 ALSTG/SLP ESTMD T02050188 TSNO $
KCBM 061455Z 18008KT 5SM BR FEW007 SCT015 OVC020 20/19 A3007 RMK AO2A SLP193 ALSTG/SLP ESTMD T01970185 52019 TSNO $
KCBM 061355Z 19006KT 5SM BR SCT010 OVC020 19/18 A3005 RMK AO2A SLP186 ALSTG/SLP ESTMD T01930183 $
KCBM 061255Z 19006KT 5SM BR FEW008 BKN020 19/18 A3004 RMK AO2A SLP180 ALSTG/SLP ESTMD T01910183 $
KCBM 061155Z 15006KT 8SM BR BKN020 OVC075 19/18 A3002 RMK AO2A VIS 2 1/2 RWY13C SLP173 ALSTG/SLP ESTMD 70010 T01910183 10192 20185 53008 $
KCBM 061055Z COR 19008KT 2 3/4SM BR BKN020 BKN055 OVC065 19/18 A2996 RMK AO2A VIS 2 3/4V4 SLP147 T01910181 TSNO $ COR 1056
KCBM 061019Z 19006KT 3SM BR BKN021 19/18 A2996 RMK AO2A BKN V SCT CIG 020 RWY31C SLP147 TSNO $
KCBM 060955Z 18007KT 8SM BR BKN021 OVC065 19/18 A2995 RMK AO2A SLP143 T01900180 TSNO $
KCBM 060913Z 18006KT 6SM BR BKN020 19/18 A2996 RMK AO2A SLP147 TSNO $
KCBM 060907Z 18006KT 7SM BKN022 19/18 A2996 RMK AO2A SLP147 TSNO $
KCBM 060855Z 18007KT 7SM BKN023 SCT070 19/18 A2995 RMK AO2A SLP143 T01900180 53005 TSNO $
KCBM 060755Z 18007KT 2 3/4SM BR BKN024 SCT065 19/18 A2995 RMK AO2A VIS 2 1/2V3 SLP143 T01870179 TSNO $
KCBM 060743Z 18006KT 4SM BR BKN024 19/18 A2995 RMK AO2A CIG 022 RWY31C SLP144 TSNO $
KCBM 060731Z 18007KT 6SM BR BKN022 BKN026 19/18 A2995 RMK AO2A CIG 018 RWY31C SLP144 TSNO $
KCBM 060713Z 18006KT 6SM BR SCT019 SCT060 19/18 A2995 RMK AO2A SLP144 TSNO $
KCBM 060707Z 19005KT 4SM BR SCT019 SCT060 19/18 A2995 RMK AO2A SLP144 TSNO $
KCBM 060704Z 19006KT 2 1/4SM BR SCT021 SCT060 19/18 A2994 RMK AO2A VIS 1 3/4V2 1/4 SLP140 TSNO $
KCBM 060655Z 18006KT 2SM BR FEW022 BKN060 19/18 A2994 RMK AO2A VIS 2V4 SLP140 T01860176 TSNO $
KCBM 060652Z 18006KT 2 1/4SM BR SCT020 BKN060 19/18 A2994 RMK AO2A VIS 2 1/4V5 SLP140 TSNO $
KCBM 060637Z 17006KT 6SM BR FEW014 BKN022 19/18 A2993 RMK AO2A CIG 018 RWY31C SLP137 TSNO $
KCBM 060628Z 18006KT 5SM BR SCT013 BKN020 19/18 A2994 RMK AO2A CIG 011V020 CIG 011 RWY31C SLP140 TSNO $
KCBM 060625Z 18007KT 6SM BR SCT011 BKN017 19/18 A2994 RMK AO2A CIG 011V017 CIG 011 RWY31C SLP140 TSNO $
KCBM 060555Z 18007KT 8SM OVC011 19/18 A2994 RMK AO2A OVC V BKN SLP140 T01850175 10185 20179 401850085 52006 TSNO $
KCBM 060540Z 17006KT 8SM BKN013 BKN055 18/17 A2994 RMK AO2A CIG 013V055 BKN013 V SCT CIG 012 RWY31C SLP140 TSNO $
KCBM 060455Z 18007KT 7SM BKN006 OVC120 18/17 A2993 RMK AO2A SLP137 T01810171 TSNO $
KCBM 060355Z 17007KT 8SM BKN120 18/17 A2993 RMK AO2A SLP137 T01810169 TSNO $
KCBM 060255Z 17004KT 8SM BKN120 18/17 A2992 RMK AO2A SLP134 T01810169 52010 TSNO $
KCBM 060155Z 18005KT 8SM BKN005 OVC140 18/17 A2991 RMK AO2A SLP130 T01820170 TSNO $
KCBM 060055Z 19007KT 8SM BKN005 OVC170 18/17 A2991 RMK AO2A SLP130 T01830170 TSNO $
KCBM 052355Z 20008KT 4SM BR BKN005 OVC060 18/17 A2989 RMK AO2A SLP124 60002 T01830171 10183 20138 55002 TSNO $
KCBM 052255Z COR 18007KT 5SM BR BKN005 OVC024 18/17 A2993 RMK AO2A SLP142 ALSTG/SLP ESTMD T01770174 TSNO $ COR 2321
KCBM 052155Z 14003KT 3SM BR BKN005 OVC047 17/17 A2993 RMK AO2A SLP139 ALSTG/SLP ESTMD T01710168 $
KCBM 052055Z 18003KT 3SM BR BKN005 BKN060 17/16 A2993 RMK AO2A RAB05E18 SLP140 ALSTG/SLP ESTMD P0001 60002 T01650162 $
KCBM 052042Z 18004KT 3SM BR BKN005 OVC050 16/16 A2993 RMK AO2A RAB05E18 SLP140 ALSTG/SLP ESTMD $
KCBM 052008Z 18005KT 2 3/4SM -RA BR OVC007 16/16 A2993 RMK AO2A RAB05 CIG 005V007 CIG 005 RWY31C SLP140 ALSTG/SLP ESTMD $
KCBM 052005Z 19006KT 2 3/4SM -RA BR OVC005 16/16 A2993 RMK AO2A RAB05 SLP140 ALSTG/SLP ESTMD $
KCBM 051955Z 19006KT 2 3/4SM BR OVC005 16/16 A2993 RMK AO2A RAE06RAB10E22RAB25E36 SLP140 ALSTG/SLP ESTMD P0000 T01610159 $
KCBM 051936Z 19005KT 2 1/2SM BR OVC004 16/16 A2993 RMK AO2A RAE06RAB10E22RAB25E36 SLP140 ALSTG/SLP ESTMD $
KCBM 051925Z 18006KT 2 1/4SM -RA BR OVC003 16/15 A2995 RMK AO2A RAE06RAB10E22RAB25 SLP146 ALSTG/SLP ESTMD $
KCBM 051906Z 17006KT 2 1/2SM BR OVC003 15/15 A2995 RMK AO2A RAE06 SLP152 ALSTG/SLP ESTMD TSNO $
KCBM 051855Z 20006KT 2 1/4SM -RA BR OVC003 15/15 A2996 RMK AO2A RAE1755RAB1759E12DZB12E14RAB24E38RAB51 SLP156 ALSTG/SLP ESTMD P0001 T01480146 TSNO $
KCBM 051805Z 18006KT 2 1/2SM -RA BR OVC003 14/14 A2997 RMK AO2A RAE1755RAB1759 SLP156 ALSTG/SLP ESTMD TSNO $
KCBM 051755Z 19004KT 1 1/2SM -RA BR OVC002 14/14 A2998 RMK AO2A RAB15 SLP163 ALSTG/SLP ESTMD P0005 60008 T01380136 10138 20100 TSNO $
KCBM 051718Z 20004KT 1 1/2SM -RA BR OVC003 13/13 A3000 RMK AO2A RAB15 SLP170 ALSTG/SLP ESTMD TSNO $
KCBM 051655Z 18005KT 1 1/2SM BR OVC002 13/13 A3001 RMK AO2A SLP173 ALSTG/SLP ESTMD T01300127 TSNO $
KCBM 051555Z 18003KT 1 1/2SM BR OVC004 12/12 A3005 RMK AO2A CIG 003 RWY31C SLP184 ALSTG/SLP ESTMD T01200115 TSNO $
KCBM 051525Z 19005KT 1 1/2SM BR OVC004 12/11 A3004 RMK AO2A SLP184 ALSTG/SLP ESTMD TSNO $
KCBM 051522Z 17005KT 1 5/8SM BR OVC004 12/11 A3004 RMK AO2A SLP184 ALSTG/SLP ESTMD TSNO $
KCBM 051519Z 18005KT 1 5/8SM BR OVC005 12/11 A3004 RMK AO2A VIS 1 5/8V2 1/4 CIG 004 RWY31C SLP184 ALSTG/SLP ESTMD TSNO $
KCBM 051516Z 17006KT 1 7/8SM BR OVC005 12/11 A3004 RMK AO2A VIS 1 7/8V2 1/2 CIG 004 RWY31C SLP184 ALSTG/SLP ESTMD TSNO $
KCBM 051458Z 16004KT 2 3/4SM BR OVC005 12/11 A3004 RMK AO2A VIS 2 3/4V6 SLP181 ALSTG/SLP ESTMD TSNO $
KCBM 051455Z 17004KT 4SM BR OVC007 12/11 A3004 RMK AO2A CIG 007V009 SLP173 ALSTG/SLP ESTMD 60003 T01150107 $
KCBM 051449Z 17005KT 6SM BR OVC007 12/11 A3004 RMK AO2A CIG 007V010 SLP173 ALSTG/SLP ESTMD TSNO $
KCBM 051443Z 17003KT 7SM OVC009 11/11 A3004 RMK AO2A SLP174 ALSTG/SLP ESTMD TSNO $
KCBM 051355Z 16004KT 8SM BR OVC010 11/10 A3004 RMK AO2A CIG 009 RWY31C SLP188 ALSTG/SLP ESTMD T01090104 $
KCBM 051255Z COR 15004KT 6SM BR FEW005 OVC012 10/10 A3004 RMK AO2A RAE16 CIG 011 RWY31C SLP165 P0003 T01040099 ALSTG/SLP ESTMD $ COR 1308
KCBM 051239Z 14003KT 5SM R13C/3500FT BR SCT005 OVC012 10/10 A3004 RMK RAE16 CIG 010 RWY31C SLP188 $
KCBM 051219Z AUTO 13005KT 3SM R13C/3000FT BR SCT003 OVC011 10/10 A3000 RMK AO2 RAE16 CIG 003 RWY31C PRESFR SLP162 TSNO $
KCBM 051204Z 13004KT 1 7/8SM -RA BR FEW003 BKN009 OVC013 10/10 A3004 RMK AO2A VIS 1 7/8V4 CIG 003V011 CIG 003 RWY31C SLP188 $
KCBM 051155Z 12004KT 4SM R31C/3500FT -RA BR BKN003 OVC014 10/10 A3001 RMK AO2A VIS 2 1/4 RWY13C DZB18E21RAB21E33DZB33E46RAB46E47RAB51 SLP165 P0004 60008 70011 T01000095 10100 20085 56010 TSNO $
KCBM 051144Z AUTO 11004KT 4SM R31C/3500FT -DZ BR BKN003 OVC014 10/10 A3001 RMK AO2 VIS 2 1/4 RWY13C DZB18E21RAB21E33DZB33 BKN V OVC SLP165 TSNO $
KCBM 051134Z 00000KT 4SM -DZ BR BKN003 OVC015 10/10 A3001 RMK AO2A VIS 2 1/4 RWY13C DZB18E21RAB21E33DZB33 SLP165 TSNO $
KCBM 051124Z 13003KT 2 3/4SM -RA BR BKN004 OVC008 10/09 A3001 RMK AO2A DZB18E21RAB21 CIG 003 RWY31C SLP165 TSNO $
KCBM 051118Z AUTO 00000KT 3SM -DZ BR BKN004 OVC009 10/09 A3001 RMK AO2 DZB18 CIG 003 RWY31C SLP165 TSNO $
KCBM 051110Z 00000KT 3SM BR BKN003 OVC009 10/09 A3001 RMK AO2A SLP165 TSNO $
KCBM 051058Z AUTO 15003KT 2 3/4SM BR BKN003 BKN009 OVC012 10/09 A3001 RMK AO2 CIG 003V014 BKN003 V SCT SLP165 TSNO $
KCBM 051055Z 16003KT 3SM BR BKN003 BKN009 OVC012 10/09 A3001 RMK AO2A RAB05E06DZB06E09RAB09E26DZB26E38 CIG 003V014 BKN003 V SCT SLP165 P0003 T00970091 TSNO $
KCBM 051008Z 00000KT 2 1/4SM -DZ BR OVC018 10/09 A3002 RMK AO2A VIS 2 1/4V5 RAB05E06DZB06 CIG 016 RWY31C SLP168 TSNO $
KCBM 051004Z 00000KT 4SM BR FEW011 OVC018 10/09 A3003 RMK AO2A VIS 2 1/2 RWY13C SLP172 TSNO $
KCBM 050955Z 00000KT 5SM BR OVC019 10/09 A3003 RMK AO2A CIG 018 RWY13C SLP172 T00970088 TSNO $
KCBM 050941Z AUTO 00000KT 10SM FEW004 OVC019 10/09 A3003 RMK AO2 SLP172 TSNO $
KCBM 050931Z 00000KT 10SM OVC019 10/09 A3003 RMK AO2A SLP172 TSNO $
KCBM 050916Z 00000KT 10SM OVC020 10/09 A3003 RMK AO2A SLP172 TSNO $
KCBM 050855Z 13003KT 10SM OVC023 10/09 A3004 RMK AO2A SLP175 60001 T00950086 57022 TSNO $
KCBM 050755Z 10003KT 10SM OVC023 09/08 A3005 RMK AO2A RAB0656E23 SLP178 P0000 T00890078 TSNO $
KCBM 050744Z 00000KT 10SM OVC023 09/08 A3005 RMK AO2A RAB0656E23 SLP178 TSNO $
KCBM 050723Z 00000KT 10SM OVC025 09/08 A3006 RMK AO2A RAB0656E23 SLP182 TSNO $
KCBM 050659Z 00000KT 10SM -RA OVC027 09/08 A3007 RMK AO2A RAB56 SLP185 TSNO $
KCBM 050656Z 00000KT 10SM -RA OVC028 09/08 A3007 RMK AO2A RAB56 CIG 027 RWY13C SLP185 TSNO $
KCBM 050655Z 00000KT 10SM OVC028 09/08 A3007 RMK AO2A RAB0549E0555RAB34E48 CIG 027 RWY13C SLP185 P0001 T00870076 TSNO $
KCBM 050555Z 35003KT 10SM -RA OVC026 09/07 A3010 RMK AO2A RAE25RAB44 SLP195 P0000 60003 T00850073 10102 20085 401370036 57015 TSNO $
KCBM 050547Z AUTO 36003KT 10SM -RA OVC026 09/07 A3010 RMK AO2 RAE25RAB44 SLP195 TSNO $
KCBM 050544Z AUTO 00000KT 10SM -RA OVC028 09/07 A3010 RMK AO2 RAE25RAB44 CIG 027 RWY13C SLP195 TSNO $
KCBM 050535Z AUTO 00000KT 10SM OVC028 09/07 A3010 RMK AO2 RAE25 SLP195 TSNO $
KCBM 050526Z AUTO 01003KT 10SM OVC029 09/07 A3010 RMK AO2 RAE25 SLP195 TSNO $
KCBM 050525Z AUTO 01003KT 10SM -RA OVC029 09/07 A3010 RMK AO2 SLP195 TSNO $
KCBM 050455Z AUTO 00000KT 10SM -RA OVC032 09/07 A3011 RMK AO2 SLP199 P0002 T00850071 TSNO $
KCBM 050355Z AUTO 00000KT 10SM -RA OVC039 09/07 A3013 RMK AO2 RAB21E31RAB53 SLP206 P0001 T00870067 TSNO $
KCBM 050353Z AUTO 36003KT 10SM -RA OVC039 09/07 A3013 RMK AO2 RAB21E31RAB53 SLP206 TSNO $
KCBM 050331Z AUTO 00000KT 10SM OVC040 09/07 A3013 RMK AO2 RAB21E31 SLP206 TSNO $
KCBM 050321Z AUTO 00000KT 10SM -RA OVC041 09/07 A3013 RMK AO2 RAB21 SLP206 TSNO $
KCBM 050255Z AUTO 00000KT 10SM OVC042 09/07 A3015 RMK AO2 RAB12E19 SLP213 P0000 60000 T00870068 58006 TSNO $
KCBM 050219Z AUTO 00000KT 10SM OVC047 09/06 A3014 RMK AO2 RAB12E19 SLP209 TSNO $
KCBM 050212Z AUTO 36003KT 10SM -RA OVC047 09/07 A3015 RMK AO2 RAB12 SLP213 TSNO $
KCBM 050155Z AUTO 00000KT 10SM OVC049 09/06 A3015 RMK AO2 RAE50 SLP213 P0000 T00870063 TSNO $
KCBM 050153Z AUTO 00000KT 10SM BKN049 OVC055 09/06 A3015 RMK AO2 RAE50 SLP213 TSNO $
KCBM 050150Z AUTO 01003KT 10SM OVC050 09/06 A3015 RMK AO2 RAE50 SLP213 TSNO $
KCBM 050055Z AUTO 31006KT 10SM -RA OVC055 10/06 A3017 RMK AO2 RAB12E26RAB48 SLP220 P0000 T00950057 TSNO $
KCBM 050048Z AUTO 31005KT 10SM -RA BKN055 10/06 A3017 RMK AO2 RAB12E26RAB48 SLP220 TSNO $
KCBM 050026Z AUTO 36004KT 10SM BKN060 10/06 A3016 RMK AO2 RAB12E26 SLP216 TSNO $
KCBM 050012Z AUTO 35005KT 10SM -RA OVC065 10/05 A3016 RMK AO2 RAB12 SLP216 TSNO $
KCBM 042355Z AUTO 32006KT 10SM OVC070 10/05 A3017 RMK AO2 RAB33E38 SLP220 P0000 60000 T01030053 10136 20103 53006 TSNO $
KCBM 042338Z AUTO 31008KT 10SM BKN075 BKN110 11/05 A3017 RMK AO2 RAB33E38 SLP220 TSNO $
KCBM 042333Z AUTO 30007KT 10SM -RA SCT075 SCT110 11/05 A3016 RMK AO2 RAB33 SLP216 TSNO $
KCBM 042255Z AUTO 33005KT 10SM FEW120 11/05 A3016 RMK AO2 SLP216 T01100051 TSNO $
KCBM 042155Z AUTO 00000KT 10SM CLR 12/04 A3014 RMK AO2 SLP209 T01190044 TSNO $
KCBM 042055Z 00000KT 10SM FEW120 12/04 A3018 RMK AO2A SLP225 ALSTG/SLP ESTMD T01180040 57030 TSNO $
KCBM 041955Z 34009KT 10SM FEW160 12/04 A3022 RMK AO2A SLP235 ALSTG/SLP ESTMD T01230043 TSNO $
KCBM 041855Z 01008KT 10SM SCT170 13/04 A3025 RMK AO2A SLP249 ALSTG/SLP ESTMD T01280042 TSNO $
KCBM 041755Z 33004KT 10SM SCT180 14/05 A3027 RMK AO2A SLP252 ALSTG/SLP ESTMD T01370048 10137 20036 57017 TSNO $
KCBM 041703Z COR VRB04KT 10SM BKN190 12/04 A3030 RMK SLP263 ALSTG/SLP ESTMD TSNO $ COR 1705
KCBM 041655Z AUTO 34004KT 10SM FEW190 11/04 A3027 RMK AO2 SLP253 T01130036 TSNO $
KCBM 041555Z AUTO 05003KT 8SM CLR 09/03 A3028 RMK AO2 SLP257 T00910029 TSNO $
KCBM 041455Z AUTO 00000KT 10SM BKN210 07/02 A3029 RMK AO2 SLP260 T00700023 50008 TSNO $
KCBM 041355Z AUTO 36004KT 10SM FEW210 05/02 A3030 RMK AO2 SLP264 T00530020 TSNO $
KCBM 041255Z AUTO 00000KT 10SM FEW230 04/02 A3027 RMK AO2 SLP253 T00380015 TSNO $
KCBM 041155Z AUTO 36005KT 10SM CLR 04/02 A3027 RMK AO2 SLP253 70001 T00420021 10084 20042 55005 TSNO $
KCBM 041055Z AUTO 36003KT 10SM CLR 05/02 A3027 RMK AO2 SLP253 T00450024 TSNO $
KCBM 040955Z AUTO 36005KT 10SM CLR 05/03 A3027 RMK AO2 SLP253 T00540032 TSNO $
TAF KCBM 070200Z 0702/0808 18006KT 9999 BKN065 QNH3002INS 
     BECMG 0705/0706 18006KT 6000 BR SCT008 BKN020 QNH3007INS 
     BECMG 0707/0708 19006KT 6000 BR VCSH BKN008 QNH3007INS 
     TEMPO 0708/0712 4800 -SHRA BR BKN005 
     BECMG 0713/0714 21006KT 4800 BR SCT003 BKN005 OVC010 QNH3015INS 
     BECMG 0718/0719 27006KT 8000 BR SCT007 BKN010 QNH3014INS TX23/0718Z
TN17/0712Z